Time;durP1;ratioP1;P1;durP2;ratioP2;P2;SDS_P1;SDS_P2;PMS_P1;PMS_P2;Temp;Humidity;BMP_temperature;BMP_pressure;BME280_temperature;BME280_humidity;BME280_pressure;Samples;Min_cycle;Max_cycle;Signal;HPM_P1;HPM_P2
2021/12/01 00:00:52;;;;;;;3.90;1.80;;;;;;;1.53;89.72;97101.30;215101;1320;24885;-76
2021/12/01 00:05:55;;;;;;;5.50;1.40;;;;;;;1.58;89.74;97116.12;215379;1321;22787;-76
2021/12/01 00:10:59;;;;;;;4.40;1.60;;;;;;;1.63;89.75;97124.70;215531;1322;22646;-76
2021/12/01 00:16:03;;;;;;;4.20;1.50;;;;;;;1.68;89.58;97131.91;215354;1322;22708;-76
2021/12/01 00:21:05;;;;;;;4.50;1.30;;;;;;;1.76;89.45;97138.27;215615;1322;22651;-76
2021/12/01 00:26:08;;;;;;;3.80;1.30;;;;;;;1.81;89.16;97144.05;215681;1322;22554;-75
2021/12/01 00:31:11;;;;;;;4.70;1.70;;;;;;;1.85;89.10;97150.42;215542;1321;22561;-76
2021/12/01 00:36:14;;;;;;;3.00;1.00;;;;;;;1.89;88.73;97159.49;215527;1316;22628;-75
2021/12/01 00:41:20;;;;;;;3.80;1.10;;;;;;;1.92;88.30;97170.51;215561;1322;22776;-75
2021/12/01 00:46:34;;;;;;;4.00;1.20;;;;;;;1.96;87.67;97181.23;215398;1321;22622;-75
2021/12/01 00:51:36;;;;;;;7.10;1.30;;;;;;;1.98;87.67;97183.70;215582;1320;22707;-76
2021/12/01 00:56:38;;;;;;;2.20;1.00;;;;;;;1.96;87.09;97190.20;215363;1322;22604;-76
2021/12/01 01:01:40;;;;;;;5.00;1.00;;;;;;;1.93;86.37;97198.34;215310;1322;22727;-76
2021/12/01 01:06:43;;;;;;;3.10;0.80;;;;;;;1.91;86.49;97210.23;215234;1322;22803;-77
2021/12/01 01:17:24;;;;;;;3.50;1.00;;;;;;;1.92;85.94;97237.43;215467;1322;23985;-76
2021/12/01 01:22:40;;;;;;;4.10;1.30;;;;;;;1.92;85.66;97246.78;215509;1322;22634;-76
2021/12/01 01:27:50;;;;;;;4.40;1.20;;;;;;;1.92;85.01;97260.84;215452;1317;22607;-76
2021/12/01 01:32:53;;;;;;;3.40;1.00;;;;;;;1.95;84.80;97268.80;215501;1321;22674;-75
2021/12/01 01:37:55;;;;;;;4.90;0.80;;;;;;;1.96;84.77;97276.73;215362;1317;24199;-76
2021/12/01 01:42:57;;;;;;;3.40;1.00;;;;;;;1.98;84.39;97300.44;215460;1321;22687;-76
2021/12/01 01:48:22;;;;;;;2.30;0.90;;;;;;;1.99;83.44;97319.35;215465;1322;22639;-76
2021/12/01 01:53:43;;;;;;;0.90;0.50;;;;;;;1.98;82.53;97344.33;215241;1322;23865;-76
2021/12/01 01:58:46;;;;;;;2.20;0.50;;;;;;;1.94;82.19;97355.91;215219;1322;25204;-76
2021/12/01 02:03:49;;;;;;;1.00;0.60;;;;;;;1.91;82.40;97371.55;214955;1323;25266;-76
2021/12/01 02:09:12;;;;;;;2.20;0.90;;;;;;;1.87;82.47;97385.08;215387;1321;24318;-76
2021/12/01 02:14:16;;;;;;;1.20;0.40;;;;;;;1.84;82.25;97388.03;215476;1319;24371;-76
2021/12/01 02:19:18;;;;;;;1.00;0.50;;;;;;;1.81;82.68;97400.70;215505;1321;22493;-75
2021/12/01 02:24:22;;;;;;;1.50;0.60;;;;;;;1.79;82.83;97419.40;215301;1322;24358;-75
2021/12/01 02:29:27;;;;;;;1.80;0.60;;;;;;;1.77;83.06;97428.52;215320;1318;22588;-76
2021/12/01 02:34:38;;;;;;;2.00;0.70;;;;;;;1.72;83.43;97428.27;215274;1321;23860;-76
2021/12/01 02:39:44;;;;;;;2.60;0.80;;;;;;;1.68;83.58;97441.75;215149;1322;23877;-76
2021/12/01 02:44:47;;;;;;;1.20;0.70;;;;;;;1.68;83.87;97444.70;214966;1323;24350;-76
2021/12/01 02:50:08;;;;;;;1.90;0.90;;;;;;;1.67;83.93;97451.24;214354;1325;22765;-76
2021/12/01 02:55:10;;;;;;;4.10;0.80;;;;;;;1.66;83.88;97464.91;214903;1321;23029;-76
2021/12/01 03:00:22;;;;;;;3.80;1.20;;;;;;;1.66;83.77;97469.40;214708;1322;25470;-76
2021/12/01 03:05:29;;;;;;;6.00;0.80;;;;;;;1.65;83.96;97476.84;215386;1320;22749;-75
2021/12/01 03:10:31;;;;;;;1.80;0.80;;;;;;;1.61;84.03;97477.73;215093;1322;24366;-76
2021/12/01 03:15:33;;;;;;;2.80;1.00;;;;;;;1.60;84.08;97482.69;215092;1321;22675;-76
2021/12/01 03:20:36;;;;;;;2.50;1.00;;;;;;;1.61;84.07;97494.36;215173;1321;24235;-76
2021/12/01 03:25:38;;;;;;;3.00;0.80;;;;;;;1.61;84.18;97504.60;214766;1320;22497;-76
2021/12/01 03:30:55;;;;;;;1.10;0.60;;;;;;;1.61;84.11;97502.77;215016;1322;24218;-76
2021/12/01 03:35:59;;;;;;;4.30;1.10;;;;;;;1.60;84.11;97512.31;215129;1316;22889;-76
2021/12/01 03:41:08;;;;;;;2.70;1.00;;;;;;;1.53;84.10;97521.43;215091;1320;24417;-76
2021/12/01 03:46:10;;;;;;;1.20;1.10;;;;;;;1.48;84.00;97518.20;214794;1323;22862;-76
2021/12/01 03:51:13;;;;;;;1.70;0.90;;;;;;;1.46;84.11;97521.67;214999;1319;25335;-76
2021/12/01 03:56:16;;;;;;;1.20;0.70;;;;;;;1.44;83.92;97528.00;215045;1316;24240;-76
2021/12/01 04:01:18;;;;;;;2.30;1.40;;;;;;;1.37;84.05;97523.80;214578;1323;22535;-76
2021/12/01 04:06:26;;;;;;;4.30;1.50;;;;;;;1.32;84.42;97526.59;215092;1320;23805;-76
2021/12/01 04:11:28;;;;;;;4.20;1.40;;;;;;;1.29;84.74;97533.65;215180;1317;25328;-76
2021/12/01 04:16:32;;;;;;;3.80;1.40;;;;;;;1.19;84.82;97539.04;215457;1316;25379;-75
2021/12/01 04:21:45;;;;;;;4.40;1.50;;;;;;;1.08;84.88;97537.15;215827;1322;22958;-75
2021/12/01 04:26:47;;;;;;;2.50;1.20;;;;;;;1.02;85.09;97535.64;215989;1316;22630;-75
2021/12/01 04:31:50;;;;;;;2.90;1.50;;;;;;;0.95;85.57;97530.27;215716;1320;24862;-75
2021/12/01 04:36:53;;;;;;;2.20;1.30;;;;;;;0.94;85.95;97539.14;215840;1322;24228;-76
2021/12/01 04:41:56;;;;;;;2.70;1.80;;;;;;;0.97;86.20;97537.83;215511;1322;25291;-74
2021/12/01 04:47:02;;;;;;;4.40;1.70;;;;;;;1.05;86.31;97543.93;215558;1322;22637;-75
2021/12/01 04:52:04;;;;;;;3.60;2.00;;;;;;;1.05;86.01;97542.89;215272;1321;22724;-75
2021/12/01 04:57:07;;;;;;;4.90;2.00;;;;;;;1.05;86.39;97534.06;215210;1322;22532;-75
2021/12/01 05:02:09;;;;;;;2.70;1.30;;;;;;;1.14;86.86;97528.63;215365;1322;24692;-76
2021/12/01 05:07:13;;;;;;;5.20;1.90;;;;;;;1.20;86.69;97523.90;215372;1317;25391;-76
2021/12/01 05:12:15;;;;;;;5.60;2.00;;;;;;;1.27;86.67;97528.42;215085;1321;139848;-76
2021/12/01 05:17:19;;;;;;;5.40;1.80;;;;;;;1.29;86.52;97524.20;215023;1323;22821;-74
2021/12/01 05:22:21;;;;;;;3.50;1.20;;;;;;;1.29;86.17;97530.38;215588;1320;25335;-75
2021/12/01 05:27:23;;;;;;;7.10;2.20;;;;;;;1.29;86.44;97527.00;215215;1313;22663;-76
2021/12/01 05:32:26;;;;;;;3.50;1.60;;;;;;;1.33;86.48;97520.80;214876;1318;22627;-75
2021/12/01 05:37:28;;;;;;;6.10;2.20;;;;;;;1.29;85.82;97530.54;215483;1322;22788;-75
2021/12/01 05:42:31;;;;;;;2.90;2.00;;;;;;;1.19;85.94;97539.73;214975;1316;22710;-76
2021/12/01 05:47:42;;;;;;;5.80;2.30;;;;;;;1.14;85.81;97545.14;215151;1323;23587;-76
2021/12/01 05:52:47;;;;;;;6.90;1.70;;;;;;;1.10;86.07;97545.60;214962;1321;22507;-75
2021/12/01 05:57:50;;;;;;;4.90;1.80;;;;;;;1.07;86.08;97544.20;214904;1319;22827;-75
2021/12/01 06:02:52;;;;;;;4.20;2.00;;;;;;;1.08;85.92;97538.09;215491;1319;22632;-75
2021/12/01 06:07:54;;;;;;;8.30;1.80;;;;;;;1.09;86.18;97529.18;214935;1319;24382;-75
2021/12/01 06:13:10;;;;;;;6.50;2.70;;;;;;;1.12;86.20;97536.90;215090;1320;24306;-76
2021/12/01 06:18:34;;;;;;;7.60;2.50;;;;;;;1.13;86.22;97528.20;214755;1322;25627;-76
2021/12/01 06:23:39;;;;;;;6.20;2.20;;;;;;;1.17;86.14;97524.36;215045;1322;23290;-76
2021/12/01 06:28:58;;;;;;;8.20;3.00;;;;;;;1.20;85.84;97524.06;214543;1320;22655;-76
2021/12/01 06:34:00;;;;;;;8.30;2.50;;;;;;;1.24;85.92;97525.98;214814;1321;25435;-76
2021/12/01 06:39:05;;;;;;;6.80;2.40;;;;;;;1.28;85.84;97516.70;215240;1316;22975;-77
2021/12/01 06:44:07;;;;;;;7.80;2.80;;;;;;;1.29;86.15;97517.50;215850;1321;22623;-76
2021/12/01 06:49:09;;;;;;;11.00;4.50;;;;;;;1.27;85.69;97510.90;215664;1316;22783;-77
2021/12/01 06:54:14;;;;;;;15.40;5.10;;;;;;;1.19;85.39;97510.33;216373;1320;22658;-76
2021/12/01 06:59:16;;;;;;;26.40;9.30;;;;;;;1.09;85.27;97498.90;216371;1316;25368;-75
2021/12/01 07:04:18;;;;;;;31.30;12.10;;;;;;;1.04;85.74;97486.65;216558;1315;23822;-76
2021/12/01 07:09:24;;;;;;;26.80;11.50;;;;;;;1.05;86.06;97481.39;217044;1316;23861;-77
2021/12/01 07:14:32;;;;;;;19.50;7.90;;;;;;;1.06;86.17;97480.05;216377;1315;23088;-76
2021/12/01 07:19:34;;;;;;;14.10;6.60;;;;;;;1.11;86.35;97472.85;215916;1315;22578;-77
2021/12/01 07:24:51;;;;;;;13.90;6.00;;;;;;;1.18;86.58;97461.90;215806;1315;22566;-76
2021/12/01 07:30:08;;;;;;;16.90;7.90;;;;;;;1.31;86.58;97452.07;215885;1315;22500;-77
2021/12/01 07:35:10;;;;;;;21.20;8.90;;;;;;;1.44;86.71;97442.12;216001;1315;23894;-77
2021/12/01 07:40:12;;;;;;;21.00;10.00;;;;;;;1.57;86.69;97446.73;216179;1315;22571;-77
2021/12/01 07:45:29;;;;;;;19.10;10.00;;;;;;;1.69;86.62;97439.79;215855;1315;22554;-76
2021/12/01 07:50:51;;;;;;;22.90;9.80;;;;;;;1.74;86.23;97427.02;216386;1315;22746;-76
2021/12/01 07:55:55;;;;;;;24.50;11.70;;;;;;;1.77;86.36;97423.42;216147;1315;22601;-76
2021/12/01 08:00:57;;;;;;;25.30;11.50;;;;;;;1.85;86.50;97420.83;216094;1316;22648;-77
2021/12/01 08:06:00;;;;;;;26.00;12.60;;;;;;;1.97;86.38;97421.14;215883;1316;22641;-77
2021/12/01 08:11:02;;;;;;;26.60;12.00;;;;;;;2.12;86.42;97403.90;215771;1316;24251;-78
2021/12/01 08:16:05;;;;;;;23.60;12.10;;;;;;;2.30;86.29;97399.16;215637;1316;23239;-77
2021/12/01 08:21:07;;;;;;;27.40;13.20;;;;;;;2.43;85.86;97400.35;215591;1315;22615;-77
2021/12/01 08:26:09;;;;;;;32.70;16.30;;;;;;;2.50;85.44;97394.15;216138;1316;25240;-78
2021/12/01 08:31:14;;;;;;;35.30;16.40;;;;;;;2.67;85.78;97381.34;216151;1315;22531;-77
2021/12/01 08:36:17;;;;;;;29.10;13.70;;;;;;;3.43;87.18;97374.20;215544;1316;23529;-76
2021/12/01 08:41:19;;;;;;;25.30;11.10;;;;;;;3.54;84.59;97360.61;215634;1316;24391;-76
2021/12/01 08:46:41;;;;;;;18.10;9.30;;;;;;;3.36;83.28;97355.41;215378;1315;22772;-77
2021/12/01 08:51:43;;;;;;;19.90;8.10;;;;;;;3.23;83.29;97352.90;215482;1315;23350;-78
2021/12/01 08:56:45;;;;;;;17.30;8.30;;;;;;;3.20;83.05;97341.55;216138;1316;22729;-77
2021/12/01 09:01:48;;;;;;;19.60;7.80;;;;;;;3.28;83.45;97331.58;216127;1315;22527;-78
2021/12/01 09:06:50;;;;;;;16.20;7.80;;;;;;;3.38;83.30;97320.77;216107;1316;22602;-77
2021/12/01 09:11:53;;;;;;;14.20;6.40;;;;;;;3.46;82.89;97314.34;215874;1315;22775;-76
2021/12/01 09:16:55;;;;;;;13.70;6.50;;;;;;;3.47;82.60;97316.73;216198;1316;22687;-74
2021/12/01 09:21:58;;;;;;;13.70;7.50;;;;;;;3.46;82.70;97313.40;216193;1316;24270;-76
2021/12/01 09:27:08;;;;;;;15.60;6.40;;;;;;;3.41;82.69;97312.22;216603;1317;22618;-76
2021/12/01 09:32:27;;;;;;;11.70;6.20;;;;;;;3.50;83.18;97297.17;216667;1316;23435;-75
2021/12/01 09:37:29;;;;;;;9.80;5.40;;;;;;;3.66;83.04;97294.33;216544;1316;23676;-76
2021/12/01 09:42:31;;;;;;;8.00;4.50;;;;;;;3.73;82.79;97292.20;216038;1316;23141;-75
2021/12/01 09:47:33;;;;;;;11.50;5.40;;;;;;;3.76;82.77;97287.92;216003;1316;22579;-75
2021/12/01 09:52:36;;;;;;;8.20;4.70;;;;;;;3.80;82.95;97278.73;215697;1316;22607;-76
2021/12/01 09:57:54;;;;;;;7.20;3.60;;;;;;;3.79;82.60;97278.84;215700;1316;22620;-77
2021/12/01 10:02:57;;;;;;;7.40;3.80;;;;;;;3.73;82.43;97275.02;215802;1315;23622;-76
2021/12/01 10:08:00;;;;;;;6.10;3.50;;;;;;;3.71;82.76;97270.80;215679;1316;22680;-76
2021/12/01 10:13:06;;;;;;;7.70;3.80;;;;;;;3.73;82.92;97255.74;215717;1316;23668;-76
2021/12/01 10:18:35;;;;;;;9.00;4.50;;;;;;;3.83;83.47;97237.85;215730;1317;22504;-76
2021/12/01 10:23:42;;;;;;;7.80;2.50;;;;;;;3.90;82.49;97228.42;216018;1315;25297;-77
2021/12/01 10:28:52;;;;;;;5.50;2.90;;;;;;;3.84;82.34;97223.10;215818;1316;22723;-77
2021/12/01 10:34:23;;;;;;;4.60;2.60;;;;;;;3.83;82.77;97206.11;216130;1315;22718;-78
2021/12/01 10:39:25;;;;;;;6.40;3.40;;;;;;;3.87;82.87;97199.11;215777;1316;22608;-76
2021/12/01 10:44:27;;;;;;;5.20;3.10;;;;;;;3.91;82.92;97197.85;216109;1316;25974;-75
2021/12/01 10:49:35;;;;;;;6.40;3.20;;;;;;;3.97;83.35;97183.53;216176;1316;22754;-75
2021/12/01 10:54:38;;;;;;;6.20;3.40;;;;;;;3.98;83.22;97174.45;216425;1315;25421;-76
2021/12/01 10:59:45;;;;;;;7.70;3.80;;;;;;;3.92;83.44;97164.88;216036;1318;22630;-76
2021/12/01 11:04:50;;;;;;;6.20;3.60;;;;;;;3.82;83.70;97157.59;216460;1319;22657;-76
2021/12/01 11:10:13;;;;;;;8.20;4.50;;;;;;;3.74;84.36;97146.98;216115;1317;23975;-76
2021/12/01 11:15:21;;;;;;;6.60;4.00;;;;;;;3.68;84.89;97129.62;215802;1315;24333;-76
2021/12/01 11:20:45;;;;;;;7.10;4.00;;;;;;;3.63;85.52;97118.41;216034;1315;25232;-76
2021/12/01 11:26:05;;;;;;;10.10;5.50;;;;;;;3.66;85.90;97112.76;216112;1316;22638;-76
2021/12/01 11:31:15;;;;;;;5.00;3.70;;;;;;;3.73;86.18;97106.26;216393;1315;25453;-76
2021/12/01 11:36:19;;;;;;;6.10;4.10;;;;;;;3.80;86.34;97105.23;217182;1316;22691;-76
2021/12/01 11:41:22;;;;;;;5.20;3.40;;;;;;;3.83;86.42;97099.82;216247;1315;23411;-76
2021/12/01 11:46:32;;;;;;;5.30;3.50;;;;;;;3.84;86.51;97087.58;216231;1316;24242;-77
2021/12/01 11:51:57;;;;;;;5.30;3.30;;;;;;;3.87;86.62;97085.95;216275;1315;22602;-77
2021/12/01 11:57:19;;;;;;;3.20;2.30;;;;;;;3.91;86.89;97078.79;216067;1315;24196;-78
2021/12/01 12:02:38;;;;;;;4.30;2.70;;;;;;;3.91;86.92;97076.15;215497;1316;23455;-78
2021/12/01 12:07:44;;;;;;;4.70;2.50;;;;;;;3.86;87.18;97065.41;215589;1319;22820;-79
2021/12/01 12:12:58;;;;;;;5.00;2.40;;;;;;;3.83;87.49;97059.23;215717;1316;23825;-78
2021/12/01 12:18:35;;;;;;;5.30;2.90;;;;;;;3.82;87.92;97044.34;215487;1321;24245;-77
2021/12/01 12:23:38;;;;;;;3.70;2.70;;;;;;;3.79;88.34;97031.13;215442;1316;22757;-76
2021/12/01 12:28:42;;;;;;;5.10;2.30;;;;;;;3.77;88.19;97025.05;215514;1316;23183;-77
2021/12/01 12:33:52;;;;;;;3.20;2.40;;;;;;;3.75;88.44;97020.80;215451;1320;23302;-77
2021/12/01 12:39:07;;;;;;;4.20;2.30;;;;;;;3.74;88.66;97014.66;215308;1322;26049;-76
2021/12/01 12:44:38;;;;;;;3.50;2.40;;;;;;;3.74;88.70;97001.67;215416;1316;25452;-78
2021/12/01 12:50:12;;;;;;;5.10;3.00;;;;;;;3.75;88.79;96985.98;215761;1316;22570;-77
2021/12/01 12:55:25;;;;;;;5.10;2.80;;;;;;;3.80;89.08;96970.88;215422;1320;23176;-78
2021/12/01 13:00:46;;;;;;;7.50;3.50;;;;;;;3.83;89.24;96956.06;215399;1316;22675;-77
2021/12/01 13:06:07;;;;;;;4.60;2.80;;;;;;;3.82;89.27;96946.84;215538;1320;22660;-77
2021/12/01 13:11:29;;;;;;;6.00;3.00;;;;;;;3.81;89.39;96939.27;215402;1316;144952;-77
2021/12/01 13:16:32;;;;;;;5.90;3.30;;;;;;;3.83;89.34;96916.64;216760;1315;24236;-77
2021/12/01 13:21:39;;;;;;;8.60;4.70;;;;;;;3.85;89.55;96908.52;216335;1316;25490;-78
2021/12/01 13:26:41;;;;;;;7.10;3.70;;;;;;;3.88;89.43;96899.45;216882;1317;24455;-78
2021/12/01 13:31:45;;;;;;;7.00;3.90;;;;;;;3.91;89.52;96897.21;216146;1322;22621;-78
2021/12/01 13:36:54;;;;;;;7.50;4.90;;;;;;;3.96;89.68;96885.22;216440;1317;23227;-78
2021/12/01 13:42:07;;;;;;;9.20;5.90;;;;;;;3.98;89.57;96878.89;216595;1319;22573;-77
2021/12/01 13:47:15;;;;;;;9.90;6.70;;;;;;;3.99;89.57;96870.48;216694;1317;24928;-78
2021/12/01 13:52:25;;;;;;;6.70;4.70;;;;;;;3.98;89.91;96862.50;216298;1316;23712;-77
2021/12/01 13:57:27;;;;;;;5.50;4.00;;;;;;;3.98;90.07;96860.91;217766;1322;23320;-77
2021/12/01 14:02:31;;;;;;;5.80;4.10;;;;;;;3.99;90.39;96863.23;216169;1317;23059;-77
2021/12/01 14:07:47;;;;;;;8.10;4.20;;;;;;;3.98;90.22;96855.14;217164;1316;22596;-78
2021/12/01 14:13:00;;;;;;;6.40;3.90;;;;;;;3.98;90.64;96839.84;216091;1319;23760;-77
2021/12/01 14:18:10;;;;;;;8.30;4.50;;;;;;;4.01;90.55;96832.05;216782;1316;22610;-79
2021/12/01 14:23:33;;;;;;;8.60;4.80;;;;;;;4.07;90.49;96823.30;215957;1317;22754;-78
2021/12/01 14:28:36;;;;;;;6.70;4.50;;;;;;;4.11;90.45;96825.75;216281;1316;22791;-77
2021/12/01 14:33:38;;;;;;;5.40;3.60;;;;;;;4.16;90.31;96823.45;216639;1316;22898;-75
2021/12/01 14:38:40;;;;;;;8.30;4.40;;;;;;;4.21;90.28;96811.52;216186;1316;22745;-75
2021/12/01 14:43:44;;;;;;;7.70;3.90;;;;;;;4.27;90.22;96796.73;216084;1321;22622;-75
2021/12/01 14:48:47;;;;;;;5.30;3.30;;;;;;;4.33;89.91;96791.48;216266;1316;22513;-77
2021/12/01 14:53:49;;;;;;;5.50;3.40;;;;;;;4.40;89.76;96796.48;216125;1316;22716;-77
2021/12/01 14:58:51;;;;;;;4.70;3.00;;;;;;;4.45;89.44;96788.26;216175;1315;22597;-77
2021/12/01 15:04:06;;;;;;;6.50;3.70;;;;;;;4.48;89.42;96791.22;216760;1316;22601;-76
2021/12/01 15:09:15;;;;;;;6.90;3.40;;;;;;;4.52;89.48;96801.43;215086;1316;22584;-75
2021/12/01 15:14:30;;;;;;;5.80;3.30;;;;;;;4.56;89.40;96810.03;214995;1316;23090;-75
2021/12/01 15:19:32;;;;;;;5.90;3.30;;;;;;;4.64;89.35;96807.27;215211;1316;23330;-75
2021/12/01 15:24:35;;;;;;;6.40;3.20;;;;;;;4.70;89.22;96789.75;215072;1315;22668;-75
2021/12/01 15:29:37;;;;;;;4.40;3.30;;;;;;;4.75;89.20;96784.38;215132;1316;22610;-76
2021/12/01 15:34:40;;;;;;;5.10;3.40;;;;;;;4.82;89.02;96782.02;215211;1316;22740;-75
2021/12/01 15:39:42;;;;;;;4.20;3.00;;;;;;;4.89;88.66;96780.64;215084;1316;22705;-75
2021/12/01 15:44:44;;;;;;;5.50;3.10;;;;;;;4.90;88.39;96767.08;214975;1315;25271;-75
2021/12/01 15:49:47;;;;;;;5.70;3.50;;;;;;;4.92;88.30;96744.16;214932;1322;24337;-75
2021/12/01 15:54:49;;;;;;;7.30;4.00;;;;;;;4.93;88.54;96723.34;214553;1322;24410;-75
2021/12/01 15:59:51;;;;;;;5.00;3.10;;;;;;;4.95;88.24;96710.23;214953;1319;25296;-75
2021/12/01 16:04:53;;;;;;;4.10;3.20;;;;;;;4.97;88.03;96705.20;215002;1317;22734;-75
2021/12/01 16:09:55;;;;;;;6.10;3.50;;;;;;;4.99;87.87;96711.84;214944;1320;22570;-76
2021/12/01 16:14:57;;;;;;;5.90;3.10;;;;;;;4.99;88.10;96711.38;214973;1321;22618;-76
2021/12/01 16:19:59;;;;;;;5.20;3.20;;;;;;;5.02;88.06;96700.04;215171;1321;22667;-76
2021/12/01 16:25:09;;;;;;;5.50;3.20;;;;;;;5.07;87.89;96689.83;215019;1321;22608;-75
2021/12/01 16:30:15;;;;;;;4.20;2.40;;;;;;;5.12;88.08;96682.55;215182;1317;25339;-75
2021/12/01 16:35:22;;;;;;;5.50;3.60;;;;;;;5.20;87.69;96664.61;214959;1322;22868;-75
2021/12/01 16:40:26;;;;;;;6.00;3.40;;;;;;;5.25;87.35;96653.39;214929;1316;22788;-76
2021/12/01 16:45:28;;;;;;;5.90;3.60;;;;;;;5.28;87.42;96650.56;215105;1321;22739;-76
2021/12/01 16:50:31;;;;;;;5.40;4.00;;;;;;;5.27;86.87;96647.44;215117;1321;25391;-76
2021/12/01 16:55:34;;;;;;;4.80;3.40;;;;;;;5.28;86.53;96660.96;214838;1322;25453;-76
2021/12/01 17:00:44;;;;;;;6.60;4.20;;;;;;;5.29;86.79;96668.52;215110;1321;23742;-76
2021/12/01 17:05:50;;;;;;;6.40;4.00;;;;;;;5.28;86.60;96659.63;215039;1321;24229;-75
2021/12/01 17:10:55;;;;;;;5.90;3.90;;;;;;;5.32;86.31;96656.58;215229;1320;22570;-76
2021/12/01 17:15:58;;;;;;;22.50;13.60;;;;;;;5.37;86.45;96659.20;214818;1320;25446;-76
2021/12/01 17:21:01;;;;;;;21.70;13.40;;;;;;;5.44;86.15;96662.40;215012;1316;22835;-75
2021/12/01 17:26:04;;;;;;;8.90;4.60;;;;;;;5.52;85.77;96663.91;215031;1322;22992;-76
2021/12/01 17:31:17;;;;;;;8.20;3.70;;;;;;;5.55;85.71;96655.39;214902;1321;22608;-76
2021/12/01 17:36:25;;;;;;;8.70;4.20;;;;;;;5.59;85.18;96647.41;214832;1321;24183;-76
2021/12/01 17:41:27;;;;;;;7.00;3.90;;;;;;;5.65;84.92;96640.95;214904;1321;23971;-76
2021/12/01 17:46:29;;;;;;;7.90;4.70;;;;;;;5.71;84.90;96628.28;214929;1321;22862;-75
2021/12/01 17:51:31;;;;;;;6.00;3.60;;;;;;;5.76;84.52;96596.66;214911;1321;22679;-76
2021/12/01 17:56:34;;;;;;;7.40;3.50;;;;;;;5.83;83.00;96591.64;214910;1322;24244;-75
2021/12/01 18:01:36;;;;;;;6.10;3.30;;;;;;;5.94;82.60;96608.23;214952;1322;24280;-76
2021/12/01 18:06:47;;;;;;;5.10;3.30;;;;;;;6.06;81.91;96609.12;214436;1323;22521;-76
2021/12/01 18:11:50;;;;;;;6.10;3.10;;;;;;;6.15;81.75;96588.65;215051;1322;22651;-76
2021/12/01 18:16:53;;;;;;;6.60;2.70;;;;;;;6.24;81.30;96580.13;214898;1320;24317;-76
2021/12/01 18:21:55;;;;;;;6.00;2.80;;;;;;;6.29;81.33;96572.67;214991;1322;24311;-76
2021/12/01 18:26:58;;;;;;;5.10;3.00;;;;;;;6.32;80.75;96570.42;214911;1321;24492;-77
2021/12/01 18:32:00;;;;;;;5.40;2.30;;;;;;;6.36;80.33;96561.78;214827;1317;22569;-76
2021/12/01 18:37:02;;;;;;;3.90;2.50;;;;;;;6.40;80.18;96559.58;215233;1321;22675;-76
2021/12/01 18:42:05;;;;;;;4.80;2.60;;;;;;;6.45;79.28;96558.96;214816;1321;22622;-76
2021/12/01 18:47:15;;;;;;;5.60;2.90;;;;;;;6.48;78.90;96562.52;215040;1321;24254;-76
2021/12/01 18:52:25;;;;;;;5.60;3.00;;;;;;;6.51;79.53;96558.79;214952;1322;22635;-76
2021/12/01 18:57:27;;;;;;;5.00;2.50;;;;;;;6.56;79.30;96543.61;214819;1322;23816;-76
2021/12/01 19:02:32;;;;;;;6.70;2.70;;;;;;;6.58;78.51;96543.95;214970;1316;25291;-76
2021/12/01 19:07:36;;;;;;;5.10;2.80;;;;;;;6.64;77.19;96545.41;214901;1319;22648;-76
2021/12/01 19:12:39;;;;;;;5.30;3.40;;;;;;;6.62;77.47;96532.33;214966;1320;24318;-76
2021/12/01 19:17:41;;;;;;;5.60;3.40;;;;;;;6.60;77.57;96528.89;215218;1321;22683;-77
2021/12/01 19:22:43;;;;;;;7.10;3.60;;;;;;;6.59;77.41;96531.52;215171;1316;22519;-76
2021/12/01 19:27:46;;;;;;;6.30;3.60;;;;;;;6.58;76.92;96523.86;214901;1320;24478;-76
2021/12/01 19:32:50;;;;;;;9.80;4.10;;;;;;;6.59;76.33;96529.61;215147;1320;23772;-76
2021/12/01 19:37:53;;;;;;;8.60;4.00;;;;;;;6.64;76.89;96525.88;215285;1321;25404;-76
2021/12/01 19:42:55;;;;;;;6.60;2.90;;;;;;;6.64;76.80;96519.39;215204;1322;22632;-76
2021/12/01 19:47:59;;;;;;;7.20;3.00;;;;;;;6.63;76.78;96502.96;215167;1321;25404;-76
2021/12/01 19:53:02;;;;;;;8.30;3.30;;;;;;;6.67;75.39;96502.36;215098;1321;22669;-75
2021/12/01 19:58:08;;;;;;;5.10;2.80;;;;;;;6.71;76.03;96504.79;214703;1322;22671;-76
2021/12/01 20:03:13;;;;;;;5.20;3.10;;;;;;;6.75;75.56;96502.52;214448;1323;22613;-77
2021/12/01 20:08:17;;;;;;;5.30;3.30;;;;;;;6.80;74.99;96496.98;214777;1322;22523;-76
2021/12/01 20:13:20;;;;;;;8.30;3.50;;;;;;;6.83;74.75;96487.88;214471;1322;22513;-77
2021/12/01 20:18:23;;;;;;;7.30;3.30;;;;;;;6.84;74.39;96478.48;214738;1322;22611;-77
2021/12/01 20:23:25;;;;;;;6.30;3.00;;;;;;;6.86;74.38;96480.16;215128;1320;24792;-76
2021/12/01 20:28:27;;;;;;;4.70;3.20;;;;;;;6.91;73.94;96491.91;214321;1318;22541;-76
2021/12/01 20:33:31;;;;;;;7.10;3.20;;;;;;;6.97;73.52;96501.21;214801;1322;22612;-75
2021/12/01 20:38:34;;;;;;;6.10;3.00;;;;;;;7.05;73.66;96508.32;214567;1323;22696;-77
2021/12/01 20:43:39;;;;;;;6.40;3.20;;;;;;;7.09;73.91;96510.77;214633;1320;22801;-76
2021/12/01 21:04:26;;;;;;;6.20;3.20;;;;;;;7.15;73.47;96515.42;214684;1321;23832;-76
2021/12/01 21:09:53;;;;;;;7.70;3.90;;;;;;;7.13;73.22;96496.19;214630;1323;233993;-76
2021/12/01 21:15:08;;;;;;;6.20;3.10;;;;;;;7.08;74.14;96492.23;214957;1320;23100;-76
2021/12/01 21:20:30;;;;;;;7.30;3.40;;;;;;;7.02;74.63;96496.52;214658;1322;22595;-76
2021/12/01 21:25:46;;;;;;;7.10;3.70;;;;;;;7.00;75.26;96499.32;214711;1322;22633;-76
2021/12/01 21:30:51;;;;;;;5.40;3.10;;;;;;;7.00;75.42;96491.27;214540;1316;22626;-76
2021/12/01 21:35:53;;;;;;;5.20;2.70;;;;;;;7.01;74.54;96489.26;214795;1321;22570;-76
2021/12/01 21:41:02;;;;;;;5.70;3.20;;;;;;;7.04;74.66;96485.55;214746;1321;22587;-75
2021/12/01 21:46:04;;;;;;;7.50;4.00;;;;;;;7.05;74.79;96478.90;214832;1320;22710;-76
2021/12/01 21:51:09;;;;;;;5.70;3.00;;;;;;;7.03;74.53;96474.19;214854;1323;22562;-76
2021/12/01 21:56:17;;;;;;;5.90;3.00;;;;;;;7.02;74.67;96483.15;214776;1316;25421;-76
2021/12/01 22:01:20;;;;;;;5.50;2.90;;;;;;;7.03;74.97;96494.73;214941;1315;22645;-76
2021/12/01 22:06:23;;;;;;;6.50;3.30;;;;;;;7.04;74.80;96497.58;215227;1317;22566;-76
2021/12/01 22:11:25;;;;;;;5.80;3.20;;;;;;;7.06;75.26;96500.84;214366;1323;22867;-76
2021/12/01 22:16:28;;;;;;;4.60;3.10;;;;;;;7.06;75.38;96501.20;214930;1316;22720;-76
2021/12/01 22:21:39;;;;;;;7.20;3.40;;;;;;;7.06;75.34;96495.50;215333;1315;23777;-76
2021/12/01 22:26:43;;;;;;;5.70;3.30;;;;;;;7.06;75.84;96488.95;215312;1322;22607;-76
2021/12/01 22:31:47;;;;;;;5.50;3.30;;;;;;;7.03;75.87;96488.28;215187;1320;22749;-76
2021/12/01 22:36:49;;;;;;;6.40;2.60;;;;;;;7.05;75.76;96487.28;214731;1321;24189;-76
2021/12/01 22:41:52;;;;;;;4.00;2.70;;;;;;;7.07;76.29;96484.38;215066;1319;24343;-76
2021/12/01 22:46:54;;;;;;;2.80;2.30;;;;;;;7.10;76.16;96494.30;215326;1322;23991;-76
2021/12/01 22:52:00;;;;;;;5.80;2.90;;;;;;;7.12;76.60;96491.59;215054;1322;23425;-76
2021/12/01 22:57:20;;;;;;;4.80;2.40;;;;;;;7.15;76.50;96490.73;214915;1321;25404;-76
2021/12/01 23:02:24;;;;;;;5.10;2.10;;;;;;;7.19;76.60;96486.45;215078;1319;22606;-75
2021/12/01 23:07:28;;;;;;;3.90;2.10;;;;;;;7.24;76.58;96488.30;214978;1322;22586;-75
2021/12/01 23:12:45;;;;;;;4.30;2.00;;;;;;;7.26;76.03;96483.71;214914;1321;22519;-77
2021/12/01 23:18:07;;;;;;;4.70;2.40;;;;;;;7.30;75.90;96468.59;214951;1322;22604;-76
2021/12/01 23:28:47;;;;;;;3.40;2.10;;;;;;;7.21;75.96;96467.04;214786;1322;24817;-74
2021/12/01 23:33:54;;;;;;;3.70;2.30;;;;;;;7.17;75.91;96464.59;214931;1321;22586;-75
2021/12/01 23:38:57;;;;;;;3.40;2.20;;;;;;;7.12;76.11;96453.91;215059;1322;24296;-75
2021/12/01 23:43:59;;;;;;;4.30;2.30;;;;;;;7.05;76.36;96444.58;214956;1319;23827;-75
2021/12/01 23:54:23;;;;;;;3.40;2.00;;;;;;;7.01;76.62;96437.37;214827;1321;25505;-76
2021/12/01 23:59:25;;;;;;;3.60;1.90;;;;;;;7.00;76.31;96441.01;214995;1321;22771;-76
